Airfield :
LOGIN :

Register | Disclaimer

   EN    FR    IT 

 










Legend :    VFR   Marginal VFR   IFR   Intensive IFR   Very Intensive IFR
Visi :
Ceiling :
>= 8 km
>= 3000ft
5 to 8 km
1000 to 3000 ft
1500m to 5 km
500 to 1000 ft
800 to 1500m
200 to 500 ft
< 800m
< 200 ft
Symbols :   Thunderstorms  Fog  Heavy snow  Heavy precipitations  Wind > 20 kt
SIGMETs :     Misc.  Thunderstorms  Icing  Turbulence  Mountain Waves  Volcanic Ashes






- Airport Elevation : 313 ft
- IATA code : LEH


LFOH - Le Havre Octeville

CURRENT METAR :
  • 291230Z AUTO 20011KT 9999 FEW025 SCT030 BKN038 12/07 Q1005 BECMG 30013KT

EXPIRED METARs :
  • 291200Z AUTO 21011KT 9999 BKN027 BKN032 OVC052 12/07 Q1006 BECMG 30013KT
  • 291130Z AUTO 21014KT 180V240 9999 FEW025 BKN050 12/07 Q1006 TEMPO 4000 RADZ BKN013
  • 291100Z AUTO 21013KT 180V240 9999 BKN025 12/08 Q1006 TEMPO 4000 RADZ BKN013
  • 291030Z AUTO 20013KT 9999 SCT021 SCT029 12/08 Q1006 TEMPO 4000 RADZ BKN013
  • 291000Z AUTO 20011KT 160V230 9999 BKN019 12/09 Q1007 TEMPO 4000 RADZ BKN013
  • 290930Z AUTO 19010KT CAVOK 11/09 Q1007 TEMPO 4000 RADZ BKN013
  • 290900Z AUTO 19011KT 160V220 CAVOK 10/09 Q1008 TEMPO 4000 RADZ BKN013
  • 290830Z AUTO 19009KT CAVOK 10/09 Q1008 TEMPO 4000 RADZ BKN013
  • 290800Z AUTO 19010KT 9999 FEW038 OVC048 10/08 Q1009 TEMPO 4000 RADZ BKN013

TAF TAF LFOH
Valid from the 29 at 12:00 until the 01 at 12:00 UTC


291100Z 2912/0112 20013KT 9999 OVC020
BECMG 2913/2915 30013KT
TEMPO 2915/2924 27018G28KT 3000 RA BKN013
BECMG 0100/0102 20013G25KT
TEMPO 0105/0112 17025G38KT 4000 RA BKN013 OVC020
ATIS : +33 2 35 54 64 93



MET'MAP, your aeronautical weather chart ! - Copyright ORBIFLY December 2007 - Disclaimer

ORBIFLY MET'MAP TEAM :

Programming & Development : Alexandra Zaïnal
Original concept : Baudouin d'Aumeries
Technical & hardware support : Manuel Goepfert
Assistance : Marc-Olivier Méhu




SOURCES & CREDITS :

   NOAA